Time;durP1;ratioP1;P1;durP2;ratioP2;P2;SDS_P1;SDS_P2;PMS_P1;PMS_P2;Temp;Humidity;BMP_temperature;BMP_pressure;BME280_temperature;BME280_humidity;BME280_pressure;Samples;Min_cycle;Max_cycle;Signal;HPM_P1;HPM_P2
2024/03/18 00:01:34;;;;;;;27.55;16.85;;;8.40;99.90;;;;;;5090335;27;20036;-79
2024/03/18 00:04:21;;;;;;;24.42;16.60;;;8.30;99.90;;;;;;5086662;28;20803;-80
2024/03/18 00:07:08;;;;;;;27.58;16.13;;;8.30;99.90;;;;;;5080232;28;20498;-79
2024/03/18 00:09:54;;;;;;;27.27;16.55;;;8.20;99.90;;;;;;5073271;27;20050;-81
2024/03/18 00:12:43;;;;;;;25.63;16.88;;;8.20;99.90;;;;;;5085511;27;20491;-81
2024/03/18 00:15:30;;;;;;;25.75;17.25;;;8.20;1.00;;;;;;5077964;28;20036;-79
2024/03/18 00:18:17;;;;;;;22.98;16.80;;;8.10;99.90;;;;;;5083597;27;20050;-77
2024/03/18 00:21:04;;;;;;;22.90;15.50;;;8.10;99.90;;;;;;5094637;28;20459;-79
2024/03/18 00:23:51;;;;;;;24.77;17.02;;;8.10;99.90;;;;;;5074675;27;20058;-82
2024/03/18 00:26:38;;;;;;;24.73;18.20;;;8.10;1.00;;;;;;5091003;28;20071;-79
2024/03/18 00:29:24;;;;;;;24.55;17.58;;;8.00;1.00;;;;;;5083201;28;20044;-80
2024/03/18 00:32:12;;;;;;;31.45;18.25;;;8.00;1.00;;;;;;5076586;27;20050;-81
2024/03/18 00:34:59;;;;;;;26.75;17.67;;;8.00;1.00;;;;;;5100304;27;20111;-81
2024/03/18 00:37:45;;;;;;;27.20;17.48;;;8.00;37.80;;;;;;5095738;28;20097;-82
2024/03/18 00:40:32;;;;;;;23.70;15.52;;;8.10;91.10;;;;;;5089728;28;20036;-79
2024/03/18 00:43:18;;;;;;;19.92;13.13;;;8.10;99.90;;;;;;5087927;27;20043;-80
2024/03/18 00:46:05;;;;;;;17.77;12.80;;;8.20;99.90;;;;;;5104914;27;20047;-77
2024/03/18 00:48:51;;;;;;;20.35;12.52;;;8.30;99.90;;;;;;5075921;28;20586;-79
2024/03/18 00:51:38;;;;;;;18.63;10.07;;;8.40;99.90;;;;;;5081698;27;20069;-78
2024/03/18 00:54:25;;;;;;;14.27;9.13;;;8.50;99.90;;;;;;5083661;27;20043;-79
2024/03/18 00:57:12;;;;;;;21.65;10.35;;;8.50;99.90;;;;;;5088927;28;20050;-81
2024/03/18 00:59:59;;;;;;;15.65;9.68;;;8.50;99.90;;;;;;5077090;28;20119;-80
2024/03/18 01:02:46;;;;;;;16.35;9.98;;;8.50;99.90;;;;;;5065942;27;20574;-81
2024/03/18 01:05:32;;;;;;;23.42;10.23;;;8.50;99.90;;;;;;5087096;28;20123;-79
2024/03/18 01:08:21;;;;;;;26.20;15.30;;;8.50;99.90;;;;;;5095353;27;20533;-80
2024/03/18 01:11:08;;;;;;;28.05;14.23;;;8.40;99.90;;;;;;5081659;27;20046;-79
2024/03/18 01:13:55;;;;;;;23.02;15.32;;;8.30;99.90;;;;;;5078648;28;20048;-79
2024/03/18 01:16:41;;;;;;;20.55;13.88;;;8.30;99.90;;;;;;5070348;28;20040;-80
2024/03/18 01:19:28;;;;;;;20.90;13.82;;;8.30;99.90;;;;;;5088292;28;20044;-78
2024/03/18 01:22:15;;;;;;;18.50;13.10;;;8.30;99.90;;;;;;5084827;28;20059;-80
2024/03/18 01:25:03;;;;;;;21.77;11.88;;;8.30;99.90;;;;;;5074755;28;20855;-81
2024/03/18 01:27:50;;;;;;;17.55;12.60;;;8.30;99.90;;;;;;5083870;28;20081;-78
2024/03/18 01:30:36;;;;;;;22.92;14.70;;;8.30;99.90;;;;;;5091207;28;20043;-79
2024/03/18 01:33:23;;;;;;;23.17;17.42;;;8.30;99.90;;;;;;5084764;28;20039;-82
2024/03/18 01:36:10;;;;;;;20.73;14.88;;;8.20;99.90;;;;;;5084225;27;20397;-81
2024/03/18 01:38:57;;;;;;;25.33;16.77;;;8.20;99.90;;;;;;5073342;28;20046;-80
2024/03/18 01:41:44;;;;;;;23.63;15.20;;;8.20;99.90;;;;;;5074146;28;20052;-80
2024/03/18 01:44:30;;;;;;;24.02;13.70;;;8.20;99.90;;;;;;5087833;27;20036;-81
2024/03/18 01:47:17;;;;;;;24.25;14.57;;;8.20;99.90;;;;;;5097824;28;20049;-79
2024/03/18 01:50:04;;;;;;;22.77;14.70;;;8.20;99.90;;;;;;5090471;28;20125;-80
2024/03/18 01:52:51;;;;;;;26.80;17.02;;;8.20;99.90;;;;;;5096623;28;20055;-79
2024/03/18 01:55:41;;;;;;;26.83;16.58;;;8.20;99.90;;;;;;5076288;27;20069;-79
2024/03/18 01:58:29;;;;;;;23.50;15.20;;;8.20;99.90;;;;;;5078765;28;20496;-79
2024/03/18 02:01:16;;;;;;;24.83;15.85;;;8.10;99.90;;;;;;5085602;28;20594;-79
2024/03/18 02:04:10;;;;;;;22.65;14.65;;;8.10;99.90;;;;;;5072376;28;20549;-78
2024/03/18 02:06:56;;;;;;;23.35;15.63;;;8.10;99.90;;;;;;5094826;28;20058;-78
2024/03/18 02:09:43;;;;;;;24.38;14.90;;;8.10;99.90;;;;;;5064040;28;20047;-78
2024/03/18 02:12:32;;;;;;;25.45;15.95;;;8.20;99.90;;;;;;5098504;28;20039;-79
2024/03/18 02:15:21;;;;;;;27.73;17.60;;;8.20;99.90;;;;;;5081529;28;20096;-79
2024/03/18 02:18:08;;;;;;;27.85;16.23;;;8.20;99.90;;;;;;5081837;28;20044;-79
2024/03/18 02:20:56;;;;;;;28.08;16.48;;;8.10;99.90;;;;;;5090593;28;20044;-78
2024/03/18 02:23:43;;;;;;;28.23;17.83;;;8.10;99.90;;;;;;5089102;28;20808;-80
2024/03/18 02:26:33;;;;;;;26.95;18.60;;;8.10;99.90;;;;;;5084584;28;20047;-77
2024/03/18 02:29:20;;;;;;;29.23;19.17;;;8.00;99.90;;;;;;5089478;28;20048;-79
2024/03/18 02:32:07;;;;;;;34.17;20.73;;;7.90;99.90;;;;;;5077093;28;20097;-78
2024/03/18 02:34:53;;;;;;;29.13;19.67;;;7.90;99.90;;;;;;5087803;28;20044;-78
2024/03/18 02:37:41;;;;;;;34.65;21.73;;;7.90;99.90;;;;;;5092124;28;20044;-78
2024/03/18 02:40:27;;;;;;;39.17;24.52;;;7.90;99.90;;;;;;5063289;28;20043;-78
2024/03/18 02:43:14;;;;;;;36.35;23.65;;;7.80;99.90;;;;;;5084797;28;20042;-80
2024/03/18 02:46:04;;;;;;;36.95;23.35;;;7.80;99.90;;;;;;5098411;28;20050;-78
2024/03/18 02:48:52;;;;;;;35.67;23.80;;;7.80;99.90;;;;;;5073408;27;20106;-80
2024/03/18 02:51:39;;;;;;;35.78;24.55;;;7.80;99.90;;;;;;5085613;28;20051;-78
2024/03/18 02:54:26;;;;;;;37.53;24.27;;;7.80;99.90;;;;;;5090150;27;20186;-79
2024/03/18 02:57:12;;;;;;;35.75;24.15;;;7.80;99.90;;;;;;5096245;28;20057;-81
2024/03/18 03:00:05;;;;;;;33.10;23.88;;;7.80;99.90;;;;;;5078844;27;20580;-77
2024/03/18 03:02:52;;;;;;;34.45;22.67;;;7.90;99.90;;;;;;5075691;27;20427;-81
2024/03/18 03:05:39;;;;;;;29.58;20.83;;;7.90;99.90;;;;;;5090389;28;20043;-80
2024/03/18 03:08:26;;;;;;;31.63;21.20;;;7.90;99.90;;;;;;5071686;28;20043;-80
2024/03/18 03:11:13;;;;;;;38.78;24.23;;;7.90;99.90;;;;;;5085662;27;20079;-81
2024/03/18 03:14:00;;;;;;;35.08;22.73;;;8.00;99.90;;;;;;5069733;28;20032;-79
2024/03/18 03:16:46;;;;;;;39.58;24.58;;;7.90;99.90;;;;;;5089142;28;20104;-79
2024/03/18 03:19:34;;;;;;;38.38;25.10;;;7.70;99.90;;;;;;5108545;27;20039;-81
2024/03/18 03:22:20;;;;;;;39.95;25.67;;;7.70;99.90;;;;;;5117646;27;20035;-81
2024/03/18 03:25:07;;;;;;;38.72;24.45;;;7.70;99.90;;;;;;5104058;28;20039;-76
2024/03/18 03:27:57;;;;;;;40.80;23.50;;;7.80;99.90;;;;;;5100153;28;20074;-79
2024/03/18 03:30:47;;;;;;;35.88;23.00;;;7.90;99.90;;;;;;5086568;28;20801;-80
2024/03/18 03:33:33;;;;;;;39.42;22.30;;;7.90;99.90;;;;;;5104181;27;20111;-80
2024/03/18 03:36:20;;;;;;;34.60;22.27;;;7.90;99.90;;;;;;5094304;27;20408;-79
2024/03/18 03:39:08;;;;;;;35.17;21.13;;;7.90;99.90;;;;;;5088979;27;20069;-79
2024/03/18 03:41:55;;;;;;;34.10;20.98;;;7.90;99.90;;;;;;5101852;27;20046;-80
2024/03/18 03:44:41;;;;;;;39.00;21.27;;;7.90;99.90;;;;;;5100405;27;20047;-79
2024/03/18 03:47:27;;;;;;;43.15;25.77;;;8.00;99.90;;;;;;5085441;28;20046;-80
2024/03/18 03:50:14;;;;;;;44.72;27.42;;;8.00;99.90;;;;;;5105584;28;20039;-79
2024/03/18 03:53:01;;;;;;;34.63;23.83;;;8.00;99.90;;;;;;5072799;27;20135;-82
2024/03/18 03:55:57;;;;;;;36.05;23.45;;;8.00;99.90;;;;;;5093591;27;20048;-79
2024/03/18 03:58:50;;;;;;;36.67;23.83;;;7.90;99.90;;;;;;5083762;28;20044;-81
2024/03/18 04:01:36;;;;;;;39.67;24.40;;;7.90;99.90;;;;;;5080646;28;20044;-78
2024/03/18 04:04:23;;;;;;;40.20;24.75;;;7.90;99.90;;;;;;5086904;27;20134;-80
2024/03/18 04:07:10;;;;;;;40.83;25.10;;;7.90;99.90;;;;;;5089638;27;20563;-80
2024/03/18 04:09:57;;;;;;;44.58;25.08;;;7.90;99.90;;;;;;5086144;28;20056;-77
2024/03/18 04:12:44;;;;;;;37.78;24.00;;;7.90;99.90;;;;;;5091936;27;20528;-82
2024/03/18 04:15:33;;;;;;;39.60;26.08;;;7.80;99.90;;;;;;5096065;28;20415;-78
2024/03/18 04:18:19;;;;;;;37.85;24.02;;;7.80;99.90;;;;;;5094928;28;20039;-82
2024/03/18 04:21:06;;;;;;;45.90;24.83;;;7.70;99.90;;;;;;5079634;28;20048;-81
2024/03/18 04:23:52;;;;;;;39.50;24.35;;;7.80;99.90;;;;;;5078040;27;20054;-81
2024/03/18 04:26:39;;;;;;;40.88;25.05;;;7.70;99.90;;;;;;5078705;27;20043;-80
2024/03/18 04:29:26;;;;;;;40.67;23.63;;;7.80;99.90;;;;;;5095048;27;20039;-78
2024/03/18 04:32:13;;;;;;;39.75;24.50;;;7.80;99.90;;;;;;5102060;28;20538;-79
2024/03/18 04:35:06;;;;;;;39.60;23.75;;;7.80;99.90;;;;;;5108830;28;20039;-78
2024/03/18 04:37:55;;;;;;;36.72;24.20;;;7.80;99.90;;;;;;5087843;27;20047;-80
2024/03/18 04:40:42;;;;;;;35.53;23.40;;;7.80;99.90;;;;;;5080692;27;20047;-82
2024/03/18 04:43:32;;;;;;;38.80;24.10;;;7.80;99.90;;;;;;5086464;28;20065;-80
2024/03/18 04:46:19;;;;;;;39.70;24.80;;;7.80;99.90;;;;;;5061129;28;20089;-81
2024/03/18 04:49:06;;;;;;;39.13;23.38;;;7.80;99.90;;;;;;5085073;27;20104;-80
2024/03/18 04:51:52;;;;;;;33.72;23.25;;;7.90;99.90;;;;;;5098454;28;20302;-78
2024/03/18 04:54:39;;;;;;;39.15;22.70;;;7.90;99.90;;;;;;5074440;28;20568;-80
2024/03/18 04:57:26;;;;;;;38.58;23.20;;;7.90;99.90;;;;;;5096848;27;20104;-80
2024/03/18 05:00:17;;;;;;;36.38;22.45;;;7.90;99.90;;;;;;5083192;27;20515;-79
2024/03/18 05:03:04;;;;;;;34.25;21.95;;;7.90;99.90;;;;;;5086810;28;20046;-78
2024/03/18 05:05:51;;;;;;;33.58;21.20;;;7.90;99.90;;;;;;5087919;28;20050;-79
2024/03/18 05:08:37;;;;;;;33.28;20.40;;;7.90;99.90;;;;;;5071229;28;20043;-79
2024/03/18 05:11:24;;;;;;;33.58;22.60;;;7.90;99.90;;;;;;5089683;27;20043;-83
2024/03/18 05:14:11;;;;;;;39.35;23.20;;;7.90;99.90;;;;;;5086343;28;20043;-81
2024/03/18 05:16:57;;;;;;;35.13;22.52;;;7.80;99.90;;;;;;5085342;27;20127;-80
2024/03/18 05:19:44;;;;;;;31.48;21.70;;;7.80;99.90;;;;;;5085164;28;20039;-80
2024/03/18 05:22:32;;;;;;;29.60;20.15;;;7.80;99.90;;;;;;5072584;28;20463;-80
2024/03/18 05:25:19;;;;;;;28.60;21.42;;;7.80;99.90;;;;;;5086034;28;20496;-80
2024/03/18 05:28:07;;;;;;;41.78;25.48;;;7.80;99.90;;;;;;5085874;28;20570;-82
2024/03/18 05:30:56;;;;;;;35.75;23.92;;;7.80;99.90;;;;;;5080432;28;20512;-82
2024/03/18 05:33:43;;;;;;;39.92;25.27;;;7.90;99.90;;;;;;5096845;28;20451;-81
2024/03/18 05:36:29;;;;;;;49.33;27.73;;;7.80;99.90;;;;;;5093416;28;20054;-82
2024/03/18 05:39:15;;;;;;;42.22;26.33;;;7.80;99.90;;;;;;5083012;28;20043;-79
2024/03/18 05:42:04;;;;;;;48.92;28.55;;;7.70;99.90;;;;;;5101397;27;20039;-82
2024/03/18 05:44:51;;;;;;;44.58;29.67;;;7.70;99.90;;;;;;5087943;28;20538;-82
2024/03/18 05:47:38;;;;;;;44.90;30.20;;;7.60;99.90;;;;;;5076628;27;20055;-82
2024/03/18 05:50:27;;;;;;;48.38;29.05;;;7.60;99.90;;;;;;5092054;27;20460;-84
2024/03/18 05:53:15;;;;;;;50.05;29.75;;;7.60;99.90;;;;;;5081665;27;20054;-81
2024/03/18 05:56:02;;;;;;;40.60;28.20;;;7.60;99.90;;;;;;5075866;27;20102;-81
2024/03/18 05:58:48;;;;;;;42.63;27.48;;;7.60;99.90;;;;;;5074942;28;20084;-80
2024/03/18 06:01:35;;;;;;;44.30;28.65;;;7.60;99.90;;;;;;5090189;27;20039;-83
2024/03/18 06:04:22;;;;;;;48.50;29.52;;;7.70;99.90;;;;;;5077338;27;20047;-81
2024/03/18 06:07:08;;;;;;;46.10;30.15;;;7.70;99.90;;;;;;5085028;28;20046;-81
2024/03/18 06:09:55;;;;;;;45.75;29.42;;;7.80;99.90;;;;;;5092494;28;20606;-81
2024/03/18 06:12:41;;;;;;;52.28;29.25;;;7.80;99.90;;;;;;5076595;28;20040;-80
2024/03/18 06:15:28;;;;;;;42.75;26.92;;;7.90;99.90;;;;;;5081386;28;20040;-82
2024/03/18 06:18:15;;;;;;;40.03;26.50;;;7.90;99.90;;;;;;5064463;28;20043;-82
2024/03/18 06:21:02;;;;;;;46.83;27.20;;;8.00;99.90;;;;;;5070807;28;20050;-81
2024/03/18 06:23:59;;;;;;;40.95;26.80;;;8.00;99.90;;;;;;5100141;27;20170;-79
2024/03/18 06:26:45;;;;;;;44.63;27.25;;;8.00;99.90;;;;;;5091163;27;20047;-80
2024/03/18 06:29:32;;;;;;;42.28;24.88;;;8.00;99.90;;;;;;5091777;27;20046;-82
2024/03/18 06:32:18;;;;;;;45.28;25.05;;;8.10;99.90;;;;;;5091483;27;20063;-80
2024/03/18 06:35:05;;;;;;;43.88;27.67;;;8.10;99.90;;;;;;5089223;28;20062;-82
2024/03/18 06:37:52;;;;;;;41.75;28.65;;;8.20;99.90;;;;;;5087404;28;20047;-82
2024/03/18 06:40:41;;;;;;;42.03;26.75;;;8.20;99.90;;;;;;5087092;27;20046;-82
2024/03/18 06:43:30;;;;;;;40.42;25.20;;;8.20;99.90;;;;;;5088615;28;20516;-80
2024/03/18 06:46:16;;;;;;;41.20;24.15;;;8.20;99.90;;;;;;5075357;27;20721;-80
2024/03/18 06:49:03;;;;;;;42.47;22.80;;;8.30;99.90;;;;;;5058672;27;20111;-81
2024/03/18 06:51:51;;;;;;;32.10;20.85;;;8.30;99.90;;;;;;5097547;27;20609;-82
2024/03/18 06:54:38;;;;;;;35.08;20.83;;;8.30;99.90;;;;;;5095010;27;20427;-81
2024/03/18 06:57:27;;;;;;;31.35;16.80;;;8.40;99.90;;;;;;5094195;27;20043;-82
2024/03/18 07:00:18;;;;;;;35.83;18.90;;;8.40;99.90;;;;;;5094754;27;20043;-83
2024/03/18 07:03:05;;;;;;;37.33;21.05;;;8.40;99.90;;;;;;5094039;27;20079;-84
2024/03/18 07:05:52;;;;;;;36.53;22.92;;;8.40;99.90;;;;;;5096130;27;20449;-85
2024/03/18 07:08:40;;;;;;;44.05;26.95;;;8.30;99.90;;;;;;5085910;27;20051;-84
2024/03/18 07:11:27;;;;;;;40.13;23.20;;;8.30;99.90;;;;;;5097378;27;20043;-82
2024/03/18 07:14:14;;;;;;;44.13;23.73;;;8.30;99.90;;;;;;5090749;27;20052;-83
2024/03/18 07:17:01;;;;;;;37.08;22.38;;;8.30;99.90;;;;;;5087297;28;20070;-81
2024/03/18 07:19:50;;;;;;;38.03;22.52;;;8.30;99.90;;;;;;5078523;27;20044;-82
2024/03/18 07:22:39;;;;;;;35.42;21.10;;;8.40;99.90;;;;;;5069564;27;20047;-78
2024/03/18 07:25:26;;;;;;;33.20;20.65;;;8.40;99.90;;;;;;5103449;27;20084;-82
2024/03/18 07:28:14;;;;;;;29.52;19.02;;;8.50;99.90;;;;;;5092631;28;20046;-84
2024/03/18 07:31:03;;;;;;;36.60;20.35;;;8.50;99.90;;;;;;5102625;27;20048;-83
2024/03/18 07:33:49;;;;;;;34.83;20.90;;;8.60;99.90;;;;;;5095984;27;20551;-80
2024/03/18 07:36:36;;;;;;;33.60;20.23;;;8.60;99.90;;;;;;5084175;28;20114;-80
2024/03/18 07:39:25;;;;;;;33.17;18.13;;;8.60;99.90;;;;;;5094022;28;20048;-83
2024/03/18 07:42:13;;;;;;;36.80;17.83;;;8.70;99.90;;;;;;5098123;27;21324;-82
2024/03/18 07:44:59;;;;;;;32.53;17.73;;;8.70;99.90;;;;;;5093270;27;20044;-82
2024/03/18 07:47:48;;;;;;;32.08;18.85;;;8.70;99.90;;;;;;5097807;27;20526;-82
2024/03/18 07:50:35;;;;;;;27.63;15.98;;;8.80;99.90;;;;;;5091006;28;20057;-79
2024/03/18 07:53:21;;;;;;;31.05;15.93;;;8.80;99.90;;;;;;5090562;28;20046;-80
2024/03/18 07:56:10;;;;;;;26.65;18.52;;;8.80;99.90;;;;;;5092247;27;20040;-84
2024/03/18 07:58:56;;;;;;;43.05;25.00;;;8.80;99.90;;;;;;5088212;27;20043;-79
2024/03/18 08:01:43;;;;;;;39.35;23.80;;;8.70;99.90;;;;;;5085011;28;20078;-76
2024/03/18 08:04:31;;;;;;;39.17;23.42;;;8.70;99.90;;;;;;5089179;27;20135;-81
2024/03/18 08:07:18;;;;;;;48.30;24.92;;;8.60;99.90;;;;;;5087807;28;20058;-80
2024/03/18 08:10:05;;;;;;;47.03;24.77;;;8.60;99.90;;;;;;5074318;27;20035;-79
2024/03/18 08:12:52;;;;;;;43.40;27.85;;;8.50;99.90;;;;;;5100260;28;20043;-80
2024/03/18 08:15:47;;;;;;;56.80;37.38;;;8.50;99.90;;;;;;5095671;27;20126;-81
2024/03/18 08:18:34;;;;;;;58.33;32.83;;;8.40;99.90;;;;;;5093253;28;20039;-83
2024/03/18 08:21:21;;;;;;;44.33;28.58;;;8.30;99.90;;;;;;5085161;28;20047;-82
2024/03/18 08:24:08;;;;;;;51.38;30.98;;;8.40;99.90;;;;;;5108819;27;20044;-82
2024/03/18 08:26:54;;;;;;;50.75;31.42;;;8.40;99.90;;;;;;5088390;27;20138;-80
2024/03/18 08:29:44;;;;;;;49.80;28.65;;;8.50;99.90;;;;;;5108883;27;20257;-80
2024/03/18 08:32:30;;;;;;;45.30;24.48;;;8.50;99.90;;;;;;5106621;28;20055;-80
2024/03/18 08:35:17;;;;;;;41.88;24.80;;;8.50;99.90;;;;;;5097078;28;20152;-79
2024/03/18 08:38:04;;;;;;;41.58;24.02;;;8.50;99.90;;;;;;5087328;28;20047;-80
2024/03/18 08:40:54;;;;;;;42.22;24.45;;;8.50;99.90;;;;;;5079790;27;20127;-82
2024/03/18 08:43:42;;;;;;;42.22;23.75;;;8.50;99.90;;;;;;5083135;27;20051;-80
2024/03/18 08:46:30;;;;;;;39.03;23.92;;;8.50;99.90;;;;;;5083187;27;20048;-80
2024/03/18 08:49:19;;;;;;;42.60;23.85;;;8.60;99.90;;;;;;5091039;27;20048;-80
2024/03/18 08:52:08;;;;;;;37.30;22.38;;;8.60;99.90;;;;;;5093857;28;20040;-83
2024/03/18 08:54:54;;;;;;;36.13;21.35;;;8.60;99.90;;;;;;5100019;27;21767;-79
2024/03/18 08:57:42;;;;;;;41.80;20.60;;;8.60;99.90;;;;;;5078641;27;20043;-81
2024/03/18 09:00:30;;;;;;;33.05;19.55;;;8.70;99.90;;;;;;5095222;27;20106;-80
2024/03/18 09:03:17;;;;;;;32.08;19.27;;;8.70;99.90;;;;;;5094821;28;20183;-81
2024/03/18 09:06:04;;;;;;;29.05;18.13;;;8.80;99.90;;;;;;5074674;27;20043;-82
2024/03/18 09:08:51;;;;;;;33.13;18.02;;;8.90;99.90;;;;;;5084223;27;20831;-83
2024/03/18 09:11:38;;;;;;;35.70;20.52;;;9.00;99.90;;;;;;5081817;27;20052;-81
2024/03/18 09:14:30;;;;;;;37.60;22.55;;;9.10;99.90;;;;;;5090367;27;20111;-83
2024/03/18 09:17:16;;;;;;;33.17;20.60;;;9.20;99.90;;;;;;5088671;27;20043;-83
2024/03/18 09:20:04;;;;;;;33.45;19.75;;;9.30;99.90;;;;;;5082665;28;20043;-82
2024/03/18 09:22:56;;;;;;;31.67;17.48;;;9.40;99.90;;;;;;5087790;27;20131;-83
2024/03/18 09:25:44;;;;;;;24.73;15.02;;;9.40;99.90;;;;;;5086717;28;20085;-83
2024/03/18 09:28:30;;;;;;;28.48;15.02;;;9.30;99.90;;;;;;5089108;27;20039;-79
2024/03/18 09:31:17;;;;;;;25.38;14.60;;;9.40;99.90;;;;;;5094951;27;20103;-82
2024/03/18 09:34:04;;;;;;;25.00;14.52;;;9.50;99.90;;;;;;5086930;27;20051;-82
2024/03/18 09:36:52;;;;;;;22.55;12.82;;;9.60;99.90;;;;;;5087455;27;20062;-75
2024/03/18 09:39:41;;;;;;;26.83;14.35;;;9.60;99.90;;;;;;5088238;27;20101;-79
2024/03/18 09:42:29;;;;;;;24.95;12.35;;;9.60;99.90;;;;;;5087896;27;20040;-78
2024/03/18 09:45:16;;;;;;;19.75;11.48;;;9.60;99.90;;;;;;5093766;28;20570;-78
2024/03/18 09:48:11;;;;;;;25.38;11.75;;;9.50;99.90;;;;;;5089176;28;20042;-82
2024/03/18 09:51:02;;;;;;;22.00;11.45;;;9.50;99.90;;;;;;5084304;27;20418;-78
2024/03/18 09:53:50;;;;;;;19.83;11.55;;;9.60;99.90;;;;;;5083797;28;20074;-79
2024/03/18 09:56:36;;;;;;;18.52;10.48;;;9.80;99.90;;;;;;5090046;28;20513;-76
2024/03/18 09:59:23;;;;;;;20.58;10.40;;;9.90;99.90;;;;;;5093809;28;20100;-85
2024/03/18 10:02:15;;;;;;;23.52;10.98;;;10.10;99.90;;;;;;5088305;27;20036;-81
2024/03/18 10:05:09;;;;;;;16.48;11.18;;;10.10;99.90;;;;;;5087094;28;20074;-78
2024/03/18 10:07:56;;;;;;;17.50;10.00;;;10.20;99.90;;;;;;5069777;28;20058;-81
2024/03/18 10:10:46;;;;;;;18.52;10.68;;;10.30;99.90;;;;;;5071424;28;20054;-81
2024/03/18 10:13:33;;;;;;;19.33;9.93;;;10.30;99.90;;;;;;5093496;28;20123;-78
2024/03/18 10:16:22;;;;;;;16.55;9.68;;;10.30;99.90;;;;;;5070895;28;20048;-80
2024/03/18 10:19:17;;;;;;;21.02;9.93;;;10.40;99.90;;;;;;5076023;28;20039;-77
2024/03/18 10:22:12;;;;;;;19.08;9.85;;;10.50;99.90;;;;;;5084452;28;20046;-78
2024/03/18 10:25:01;;;;;;;17.25;10.60;;;10.50;99.90;;;;;;5101906;28;20052;-77
2024/03/18 10:27:50;;;;;;;19.33;9.93;;;10.60;99.90;;;;;;5092376;28;20055;-80
2024/03/18 10:30:37;;;;;;;18.50;10.18;;;10.60;99.90;;;;;;5096585;28;20039;-76
2024/03/18 10:33:24;;;;;;;17.50;9.55;;;10.50;99.90;;;;;;5078164;28;20047;-77
2024/03/18 10:36:24;;;;;;;16.27;9.45;;;10.40;99.90;;;;;;5072154;28;20040;-78
2024/03/18 10:39:16;;;;;;;12.75;9.48;;;10.30;99.90;;;;;;5098887;28;20039;-78
2024/03/18 10:42:03;;;;;;;16.83;9.85;;;10.30;99.90;;;;;;5092579;28;20039;-79
2024/03/18 10:44:58;;;;;;;15.15;8.93;;;10.40;99.90;;;;;;5092702;28;20061;-81
2024/03/18 10:47:45;;;;;;;14.27;9.05;;;10.40;99.90;;;;;;5089115;28;20050;-81
2024/03/18 10:50:33;;;;;;;15.23;8.45;;;10.40;99.90;;;;;;5093186;28;20035;-78
2024/03/18 10:53:24;;;;;;;12.82;8.23;;;10.30;99.90;;;;;;5105628;28;20048;-78
2024/03/18 10:56:11;;;;;;;14.85;8.90;;;10.30;99.90;;;;;;5104813;28;20028;-78
2024/03/18 10:58:58;;;;;;;14.23;9.38;;;10.40;99.90;;;;;;5106679;28;20040;-78
2024/03/18 11:01:45;;;;;;;12.55;8.77;;;10.30;99.90;;;;;;5107498;28;20062;-80
2024/03/18 11:04:39;;;;;;;13.65;8.35;;;10.30;99.90;;;;;;5092464;28;20043;-79
2024/03/18 11:07:30;;;;;;;15.98;9.90;;;10.30;99.90;;;;;;5074858;28;20044;-81
2024/03/18 11:10:17;;;;;;;16.35;10.30;;;10.20;99.90;;;;;;5099260;27;20048;-80
2024/03/18 11:13:14;;;;;;;16.13;10.10;;;10.30;99.90;;;;;;5107790;28;20044;-77
2024/03/18 11:16:09;;;;;;;16.98;10.48;;;10.30;99.90;;;;;;5094088;27;20126;-80
2024/03/18 11:19:05;;;;;;;12.80;9.30;;;10.20;99.90;;;;;;5094114;27;20134;-78
2024/03/18 11:21:59;;;;;;;18.85;12.20;;;10.30;99.90;;;;;;5091871;28;20477;-79
2024/03/18 11:24:52;;;;;;;21.67;10.65;;;10.20;99.90;;;;;;5093084;28;20044;-80
2024/03/18 11:27:49;;;;;;;17.63;10.98;;;10.20;99.90;;;;;;5097295;27;20048;-80
2024/03/18 11:30:36;;;;;;;22.70;12.00;;;10.20;99.90;;;;;;5094794;27;20039;-79
2024/03/18 11:33:23;;;;;;;19.73;11.95;;;10.20;99.90;;;;;;5091063;27;20138;-79
2024/03/18 11:36:16;;;;;;;19.70;11.38;;;10.20;99.90;;;;;;5099192;28;20444;-79
2024/03/18 11:39:12;;;;;;;20.75;11.40;;;10.20;99.90;;;;;;5092851;28;20567;-80
2024/03/18 11:42:00;;;;;;;14.25;9.93;;;10.20;99.90;;;;;;5092013;27;20039;-83
2024/03/18 11:44:50;;;;;;;18.27;11.60;;;10.30;99.90;;;;;;5087532;28;20048;-81
2024/03/18 11:47:41;;;;;;;20.30;10.52;;;10.30;99.90;;;;;;5093223;28;20459;-81
2024/03/18 11:50:38;;;;;;;19.63;9.60;;;10.30;99.90;;;;;;5088564;27;20052;-82
2024/03/18 11:53:25;;;;;;;15.27;9.07;;;10.40;99.90;;;;;;5092288;27;20059;-82
2024/03/18 11:56:12;;;;;;;17.35;10.07;;;10.60;99.90;;;;;;5085570;27;20036;-83
2024/03/18 11:59:02;;;;;;;19.73;10.48;;;10.70;99.90;;;;;;5083864;27;20040;-81
2024/03/18 12:01:51;;;;;;;14.82;9.57;;;10.80;99.90;;;;;;5084831;27;20044;-79
2024/03/18 12:04:38;;;;;;;15.05;9.30;;;10.90;99.90;;;;;;5088733;27;20466;-80
2024/03/18 12:07:26;;;;;;;10.63;8.32;;;11.00;99.90;;;;;;5091464;27;20844;-82
2024/03/18 12:10:18;;;;;;;9.85;6.40;;;11.10;99.90;;;;;;5095130;27;20049;-79
2024/03/18 12:13:05;;;;;;;10.57;7.07;;;11.10;99.90;;;;;;5103567;27;20427;-81
2024/03/18 12:15:53;;;;;;;12.43;8.25;;;11.00;99.90;;;;;;5114076;27;20392;-78
2024/03/18 12:18:40;;;;;;;10.10;7.80;;;10.90;99.90;;;;;;5108836;27;20044;-80
2024/03/18 12:21:40;;;;;;;12.25;6.90;;;10.80;99.90;;;;;;5093200;28;20058;-82
2024/03/18 12:30:48;;;;;;;11.13;6.70;;;10.30;99.90;;;;;;5101044;27;20052;-84
2024/03/18 12:33:44;;;;;;;11.73;5.57;;;10.30;99.90;;;;;;5088566;27;20051;-81
2024/03/18 12:36:32;;;;;;;11.52;6.25;;;10.20;99.90;;;;;;5096398;28;20100;-80
2024/03/18 12:39:19;;;;;;;9.70;5.88;;;10.20;99.90;;;;;;5103548;27;20043;-81
2024/03/18 12:42:14;;;;;;;7.57;4.68;;;10.30;99.90;;;;;;5093978;27;20351;-82
2024/03/18 12:45:07;;;;;;;9.82;4.18;;;10.20;99.90;;;;;;5095058;27;20039;-79
2024/03/18 12:47:54;;;;;;;9.35;4.05;;;10.20;99.90;;;;;;5104691;27;20051;-81
2024/03/18 12:50:41;;;;;;;8.18;3.70;;;10.10;99.90;;;;;;5091867;28;20058;-82
2024/03/18 12:53:27;;;;;;;6.60;3.67;;;10.10;99.90;;;;;;5094571;27;20039;-81
2024/03/18 12:56:17;;;;;;;9.70;3.60;;;10.20;99.90;;;;;;5103670;27;20438;-83
2024/03/18 12:59:05;;;;;;;7.38;3.67;;;10.30;99.90;;;;;;5088234;27;20043;-82
2024/03/18 13:01:54;;;;;;;13.40;4.07;;;10.40;99.90;;;;;;5085479;28;20692;-82
2024/03/18 13:04:41;;;;;;;7.68;3.22;;;10.50;99.90;;;;;;5070356;28;20052;-81
2024/03/18 13:07:29;;;;;;;7.07;3.20;;;10.60;99.90;;;;;;5094858;28;20733;-82
2024/03/18 13:10:17;;;;;;;11.25;3.97;;;10.70;99.90;;;;;;5066599;27;20050;-81
2024/03/18 13:13:07;;;;;;;6.55;3.28;;;10.80;99.90;;;;;;5083525;28;20110;-78
2024/03/18 13:15:55;;;;;;;7.18;3.13;;;10.90;99.90;;;;;;5098249;28;20039;-80
2024/03/18 13:18:43;;;;;;;7.00;3.47;;;11.00;99.90;;;;;;5082935;27;20445;-81
2024/03/18 13:21:33;;;;;;;7.22;2.72;;;11.10;99.90;;;;;;5102176;28;20109;-81
2024/03/18 13:24:20;;;;;;;11.82;3.25;;;11.10;99.90;;;;;;5101841;27;20679;-80
2024/03/18 13:27:08;;;;;;;8.98;2.60;;;11.10;99.90;;;;;;5096770;27;20084;-81
2024/03/18 13:29:54;;;;;;;7.68;2.60;;;11.20;99.90;;;;;;5101792;27;20039;-80
2024/03/18 13:32:41;;;;;;;12.95;3.55;;;11.30;99.90;;;;;;5090731;28;20116;-77
2024/03/18 13:35:29;;;;;;;7.18;3.40;;;11.50;99.90;;;;;;5086307;27;20042;-80
2024/03/18 13:38:17;;;;;;;7.03;3.80;;;11.60;99.90;;;;;;5087316;27;20050;-81
2024/03/18 13:41:07;;;;;;;4.35;3.17;;;11.60;99.90;;;;;;5094550;27;20039;-77
2024/03/18 13:43:55;;;;;;;7.47;3.78;;;11.60;99.90;;;;;;5091193;27;20043;-81
2024/03/18 13:46:42;;;;;;;8.38;4.32;;;11.50;99.90;;;;;;5090933;27;20062;-79
2024/03/18 13:49:34;;;;;;;8.02;4.60;;;11.70;99.90;;;;;;5090774;27;20056;-82
2024/03/18 13:52:20;;;;;;;10.20;4.43;;;11.70;99.90;;;;;;5091267;27;20103;-81
2024/03/18 13:55:13;;;;;;;9.80;5.18;;;11.90;1.00;;;;;;5076174;28;20035;-82
2024/03/18 13:58:00;;;;;;;;;;;11.90;99.90;;;;;;5094106;27;20043;-79
2024/03/18 14:00:48;;;;;;;9.98;5.97;;;12.10;11.80;;;;;;5086402;28;19930;-80
2024/03/18 14:03:38;;;;;;;10.07;5.82;;;11.90;99.90;;;;;;5093942;28;20427;-80
2024/03/18 14:06:24;;;;;;;9.23;5.68;;;11.90;99.90;;;;;;5094530;28;20042;-84
2024/03/18 14:09:11;;;;;;;12.50;6.97;;;11.90;23.40;;;;;;5083074;27;20054;-82
2024/03/18 14:12:00;;;;;;;10.98;6.80;;;12.00;99.90;;;;;;5087908;27;20531;-80
2024/03/18 14:14:50;;;;;;;12.57;7.53;;;12.00;99.90;;;;;;5081018;28;20039;-80
2024/03/18 14:17:37;;;;;;;15.40;7.28;;;12.10;99.90;;;;;;5079386;28;20040;-79
2024/03/18 14:20:23;;;;;;;11.52;6.88;;;12.00;1.00;;;;;;5095525;28;20104;-81
2024/03/18 14:23:15;;;;;;;13.40;7.25;;;12.00;99.90;;;;;;5091244;28;20039;-81
2024/03/18 14:26:07;;;;;;;10.57;6.97;;;12.10;99.90;;;;;;5074184;28;20055;-82
2024/03/18 14:28:54;;;;;;;16.85;7.70;;;12.10;1.00;;;;;;5087882;28;20481;-81
2024/03/18 14:31:42;;;;;;;11.13;6.60;;;12.10;1.00;;;;;;5073893;27;20044;-79